createdAt,value
2023-04-22T00:02:19.354Z,1.80
2023-04-22T00:04:46.710Z,2.40
2023-04-22T00:07:14.478Z,2.25
2023-04-22T00:09:41.796Z,2.30
2023-04-22T00:12:08.770Z,2.03
2023-04-22T00:14:35.627Z,2.95
2023-04-22T00:17:02.351Z,2.53
2023-04-22T00:19:29.359Z,2.20
2023-04-22T00:21:56.133Z,2.88
2023-04-22T00:24:22.842Z,2.00
2023-04-22T00:26:49.725Z,2.30
2023-04-22T00:29:16.371Z,2.40
2023-04-22T00:31:43.388Z,2.05
2023-04-22T00:34:10.252Z,3.60
2023-04-22T00:36:39.593Z,2.35
2023-04-22T00:39:06.447Z,2.10
2023-04-22T00:41:33.152Z,2.45
2023-04-22T00:44:00.544Z,2.60
2023-04-22T00:46:27.275Z,2.50
2023-04-22T00:48:54.035Z,2.90
2023-04-22T00:51:20.682Z,2.08
2023-04-22T00:53:47.423Z,2.08
2023-04-22T00:56:14.049Z,2.60
2023-04-22T00:58:40.664Z,2.42
2023-04-22T01:01:07.541Z,2.40
2023-04-22T01:03:34.546Z,1.90
2023-04-22T01:06:01.349Z,2.63
2023-04-22T01:08:29.661Z,2.83
2023-04-22T01:10:57.367Z,2.55
2023-04-22T01:13:24.412Z,2.67
2023-04-22T01:15:51.724Z,3.20
2023-04-22T01:18:18.421Z,2.40
2023-04-22T01:20:45.446Z,2.53
2023-04-22T01:23:19.065Z,2.03
2023-04-22T01:25:46.482Z,2.10
2023-04-22T01:28:13.227Z,2.08
2023-04-22T01:30:39.955Z,1.60
2023-04-22T01:33:06.779Z,1.48
2023-04-22T01:35:37.034Z,1.65
2023-04-22T01:38:06.063Z,1.88
2023-04-22T01:40:33.164Z,1.17
2023-04-22T01:43:00.398Z,1.63
2023-04-22T01:45:27.822Z,3.55
2023-04-22T01:47:54.847Z,2.83
2023-04-22T01:50:21.625Z,2.97
2023-04-22T01:52:48.432Z,2.45
2023-04-22T01:55:15.089Z,1.88
2023-04-22T01:57:41.838Z,3.08
2023-04-22T02:00:09.336Z,3.33
2023-04-22T02:02:36.082Z,2.88
2023-04-22T02:05:03.140Z,3.30
2023-04-22T02:07:29.849Z,3.67
2023-04-22T02:09:56.542Z,2.55
2023-04-22T02:12:23.214Z,2.40
2023-04-22T02:14:52.931Z,2.28
2023-04-22T02:17:19.574Z,2.50
2023-04-22T02:19:46.230Z,1.92
2023-04-22T02:22:12.885Z,1.70
2023-04-22T02:24:39.523Z,2.40
2023-04-22T02:27:07.603Z,1.92
2023-04-22T02:29:34.688Z,1.88
2023-04-22T02:32:01.422Z,2.10
2023-04-22T02:34:28.007Z,1.67
2023-04-22T02:36:54.614Z,1.73
2023-04-22T02:39:21.200Z,1.98
2023-04-22T02:41:47.802Z,1.88
2023-04-22T02:44:14.492Z,2.00
2023-04-22T02:46:41.209Z,1.80
2023-04-22T02:49:08.066Z,2.05
2023-04-22T02:51:34.691Z,2.30
2023-04-22T02:54:01.393Z,2.38
2023-04-22T02:56:28.092Z,2.00
2023-04-22T02:58:54.734Z,2.30
2023-04-22T03:01:21.380Z,2.47
2023-04-22T03:03:48.269Z,3.05
2023-04-22T03:06:15.165Z,2.10
2023-04-22T03:08:41.829Z,2.30
2023-04-22T03:11:08.512Z,2.40
2023-04-22T03:13:35.191Z,2.17
2023-04-22T03:16:02.148Z,2.00
2023-04-22T03:18:28.850Z,1.83
2023-04-22T03:20:55.652Z,2.38
2023-04-22T03:23:22.340Z,2.20
2023-04-22T03:25:49.091Z,2.20
2023-04-22T03:28:15.754Z,1.90
2023-04-22T03:30:42.460Z,2.20
2023-04-22T03:33:09.300Z,2.60
2023-04-22T03:35:36.185Z,2.67
2023-04-22T03:38:03.024Z,2.15
2023-04-22T03:40:29.751Z,2.28
2023-04-22T03:42:56.541Z,1.98
2023-04-22T03:45:23.157Z,2.50
2023-04-22T03:47:49.826Z,2.75
2023-04-22T03:50:17.032Z,2.17
2023-04-22T03:52:43.785Z,2.67
2023-04-22T03:55:10.567Z,2.47
2023-04-22T03:57:37.161Z,2.47
2023-04-22T04:00:04.386Z,1.90
2023-04-22T04:02:31.229Z,1.85
2023-04-22T04:04:58.235Z,2.00
2023-04-22T04:07:25.391Z,2.15
2023-04-22T04:09:52.035Z,2.17
2023-04-22T04:12:18.773Z,2.00
2023-04-22T04:14:45.461Z,2.17
2023-04-22T04:17:13.945Z,2.38
2023-04-22T04:19:41.024Z,1.92
2023-04-22T04:22:08.601Z,2.03
2023-04-22T04:24:36.548Z,2.53
2023-04-22T04:27:03.829Z,2.55
2023-04-22T04:29:30.459Z,2.08
2023-04-22T04:31:57.155Z,2.20
2023-04-22T04:34:23.791Z,2.45
2023-04-22T04:36:50.576Z,1.73
2023-04-22T04:39:17.452Z,1.73
2023-04-22T04:41:44.994Z,1.80
2023-04-22T04:44:12.206Z,2.70
2023-04-22T04:46:39.522Z,1.95
2023-04-22T04:49:07.001Z,1.88
2023-04-22T04:51:33.786Z,2.88
2023-04-22T04:54:00.409Z,2.92
2023-04-22T04:56:27.106Z,2.35
2023-04-22T04:58:53.751Z,2.60
2023-04-22T05:01:20.441Z,2.58
2023-04-22T05:03:47.366Z,2.22
2023-04-22T05:06:14.158Z,2.00
2023-04-22T05:08:40.775Z,1.90
2023-04-22T05:11:07.573Z,2.33
2023-04-22T05:13:34.190Z,2.90
2023-04-22T05:16:00.881Z,1.95
2023-04-22T05:18:27.648Z,2.00
2023-04-22T05:20:54.364Z,2.33
2023-04-22T05:23:21.027Z,2.05
2023-04-22T05:25:47.602Z,2.53
2023-04-22T05:28:14.249Z,1.75
2023-04-22T05:30:40.871Z,1.95
2023-04-22T05:33:08.649Z,1.42
2023-04-22T05:35:35.565Z,1.58
2023-04-22T05:38:03.064Z,1.90
2023-04-22T05:40:29.786Z,1.55
2023-04-22T05:42:57.440Z,1.23
2023-04-22T05:45:24.180Z,1.88
2023-04-22T05:47:50.903Z,1.88
2023-04-22T05:50:17.589Z,1.23
2023-04-22T05:52:44.226Z,1.48
2023-04-22T05:55:10.993Z,1.90
2023-04-22T05:57:37.878Z,1.40
2023-04-22T06:00:05.198Z,1.30
2023-04-22T06:02:31.964Z,1.85
2023-04-22T06:04:59.093Z,1.88
2023-04-22T06:07:26.082Z,1.77
2023-04-22T06:10:02.174Z,1.63
2023-04-22T06:12:31.016Z,1.27
2023-04-22T06:14:57.675Z,1.15
2023-04-22T06:17:24.311Z,1.60
2023-04-22T06:19:51.727Z,1.25
2023-04-22T06:22:18.457Z,1.58
2023-04-22T06:24:46.345Z,2.92
2023-04-22T06:27:14.332Z,3.25
2023-04-22T06:29:41.159Z,2.72
2023-04-22T06:32:08.037Z,3.10
2023-04-22T06:34:34.704Z,2.85
2023-04-22T06:37:01.337Z,2.47
2023-04-22T06:39:28.299Z,2.33
2023-04-22T06:41:55.072Z,2.85
2023-04-22T06:44:26.152Z,1.00
2023-04-22T06:46:53.386Z,0.93
2023-04-22T06:49:21.375Z,1.25
2023-04-22T06:51:48.049Z,1.48
2023-04-22T06:54:14.732Z,1.33
2023-04-22T06:56:41.542Z,1.23
2023-04-22T06:59:08.230Z,0.88
2023-04-22T07:01:35.112Z,1.10
2023-04-22T07:04:01.825Z,1.15
2023-04-22T07:06:28.570Z,1.17
2023-04-22T07:08:55.480Z,1.25
2023-04-22T07:11:22.181Z,1.02
2023-04-22T07:13:49.040Z,1.90
2023-04-22T07:16:16.094Z,2.05
2023-04-22T07:18:42.928Z,1.20
2023-04-22T07:21:09.615Z,1.10
2023-04-22T07:23:36.292Z,0.80
2023-04-22T07:26:03.355Z,1.30
2023-04-22T07:28:30.257Z,0.88
2023-04-22T07:30:57.139Z,1.23
2023-04-22T07:33:25.115Z,1.38
2023-04-22T07:35:51.791Z,1.50
2023-04-22T07:38:18.574Z,1.77
2023-04-22T07:40:45.402Z,1.60
2023-04-22T07:43:12.072Z,2.80
2023-04-22T07:45:39.115Z,4.22
2023-04-22T07:48:06.334Z,1.25
2023-04-22T07:50:33.145Z,1.20
2023-04-22T07:53:00.643Z,1.48
2023-04-22T07:55:27.517Z,1.30
2023-04-22T07:57:54.379Z,1.30
2023-04-22T08:00:21.278Z,3.28
2023-04-22T08:02:48.074Z,1.17
2023-04-22T08:05:14.900Z,1.02
2023-04-22T08:07:41.931Z,4.25
2023-04-22T08:10:09.226Z,1.15
2023-04-22T08:12:39.639Z,1.48
2023-04-22T08:15:06.831Z,1.85
2023-04-22T08:17:33.620Z,2.92
2023-04-22T08:20:00.398Z,1.40
2023-04-22T08:22:27.576Z,1.17
2023-04-22T08:24:54.336Z,0.52
2023-04-22T08:27:22.822Z,1.25
2023-04-22T08:29:49.562Z,1.23
2023-04-22T08:32:16.716Z,0.50
2023-04-22T08:34:43.913Z,1.42
2023-04-22T08:37:10.916Z,1.40
2023-04-22T08:39:37.998Z,7.53
2023-04-22T08:42:05.464Z,1.08
2023-04-22T08:44:32.223Z,1.00
2023-04-22T08:47:00.435Z,2.15
2023-04-22T08:49:28.904Z,0.80
2023-04-22T08:51:56.612Z,1.40
2023-04-22T08:54:24.586Z,1.38
2023-04-22T08:56:51.680Z,0.50
2023-04-22T08:59:18.583Z,0.60
2023-04-22T09:01:45.397Z,0.75
2023-04-22T09:04:12.374Z,0.73
2023-04-22T09:06:39.219Z,0.77
2023-04-22T09:09:06.074Z,1.23
2023-04-22T09:11:32.890Z,0.80
2023-04-22T09:13:59.886Z,0.68
2023-04-22T09:16:26.667Z,0.80
2023-04-22T09:18:53.455Z,1.98
2023-04-22T09:21:20.350Z,0.80
2023-04-22T09:23:51.375Z,1.20
2023-04-22T09:26:20.797Z,1.40
2023-04-22T09:28:53.649Z,2.78
2023-04-22T09:31:22.440Z,2.03
2023-04-22T09:33:53.686Z,1.05
2023-04-22T09:36:26.301Z,1.38
2023-04-22T09:38:55.455Z,0.52
2023-04-22T09:41:39.353Z,1.10
2023-04-22T09:44:15.441Z,0.77
2023-04-22T09:46:43.116Z,0.85
2023-04-22T09:49:11.364Z,1.70
2023-04-22T09:51:40.958Z,1.50
2023-04-22T09:54:10.190Z,1.15
2023-04-22T09:56:48.127Z,1.20
2023-04-22T09:59:19.868Z,1.15
2023-04-22T10:01:46.789Z,1.40
2023-04-22T10:04:15.480Z,1.10
2023-04-22T10:06:42.862Z,1.52
2023-04-22T10:09:09.775Z,0.80
2023-04-22T10:11:37.507Z,0.73
2023-04-22T10:14:05.250Z,0.63
2023-04-22T10:16:32.652Z,0.90
2023-04-22T10:19:00.802Z,3.25
2023-04-22T10:21:27.491Z,1.35
2023-04-22T10:23:54.195Z,1.02
2023-04-22T10:26:42.767Z,1.80
2023-04-22T10:29:13.625Z,1.95
2023-04-22T10:31:40.712Z,2.17
2023-04-22T10:34:12.969Z,1.92
2023-04-22T10:36:57.215Z,1.95
2023-04-22T10:39:24.372Z,1.40
2023-04-22T10:41:53.590Z,0.70
2023-04-22T10:44:21.840Z,1.20
2023-04-22T10:46:55.996Z,2.20
2023-04-22T10:49:23.844Z,1.70
2023-04-22T10:51:53.130Z,2.60
2023-04-22T10:54:36.453Z,0.50
2023-04-22T10:57:07.368Z,2.22
2023-04-22T10:59:35.664Z,7.72
2023-04-22T11:02:03.240Z,3.00
2023-04-22T11:04:30.279Z,1.73
2023-04-22T11:10:04.238Z,0.98
2023-04-22T11:12:43.428Z,0.77
2023-04-22T11:15:11.656Z,0.77
2023-04-22T11:17:38.947Z,2.45
2023-04-22T11:20:07.103Z,1.40
2023-04-22T11:22:36.031Z,1.05
2023-04-22T11:25:04.236Z,4.22
2023-04-22T11:27:31.088Z,1.40
2023-04-22T11:30:09.774Z,2.33
2023-04-22T11:32:37.291Z,2.08
2023-04-22T11:35:05.273Z,1.92
2023-04-22T11:37:32.384Z,1.15
2023-04-22T11:40:21.555Z,1.15
2023-04-22T11:42:48.901Z,1.45
2023-04-22T11:45:16.283Z,0.88
2023-04-22T11:47:43.217Z,0.85
2023-04-22T11:50:11.721Z,0.85
2023-04-22T11:53:01.220Z,1.85
2023-04-22T11:55:30.886Z,1.20
2023-04-22T11:57:59.294Z,1.08
2023-04-22T12:00:42.566Z,0.60
2023-04-22T12:05:54.091Z,1.48
2023-04-22T12:08:24.177Z,2.67
2023-04-22T12:10:55.908Z,1.17
2023-04-22T12:13:25.647Z,1.55
2023-04-22T12:15:55.206Z,1.20
2023-04-22T12:18:33.197Z,4.60
2023-04-22T12:21:01.358Z,2.38
2023-04-22T12:23:28.623Z,0.93
2023-04-22T12:25:55.616Z,1.20
2023-04-22T12:28:22.445Z,2.58
2023-04-22T12:30:49.236Z,1.20
2023-04-22T12:33:16.032Z,2.28
2023-04-22T12:35:42.789Z,1.45
2023-04-22T12:38:09.790Z,1.20
2023-04-22T12:40:36.865Z,1.00
2023-04-22T12:43:05.885Z,1.30
2023-04-22T12:45:33.061Z,1.35
2023-04-22T12:47:59.856Z,2.53
2023-04-22T12:50:26.984Z,1.00
2023-04-22T12:52:54.935Z,1.27
2023-04-22T12:55:21.581Z,1.15
2023-04-22T12:57:48.921Z,1.77
2023-04-22T13:00:16.133Z,1.33
2023-04-22T13:02:43.842Z,1.17
2023-04-22T13:05:11.093Z,1.17
2023-04-22T13:07:38.241Z,5.82
2023-04-22T13:10:06.072Z,1.30
2023-04-22T13:12:32.810Z,0.88
2023-04-22T13:14:59.554Z,1.30
2023-04-22T13:17:26.609Z,0.93
2023-04-22T13:19:53.272Z,1.20
2023-04-22T13:22:19.963Z,1.05
2023-04-22T13:24:46.683Z,1.42
2023-04-22T13:27:13.437Z,0.98
2023-04-22T13:29:40.338Z,1.00
2023-04-22T13:32:09.236Z,1.20
2023-04-22T13:34:39.382Z,1.08
2023-04-22T13:37:06.480Z,5.20
2023-04-22T13:39:33.111Z,4.47
2023-04-22T13:42:00.215Z,1.60
2023-04-22T13:44:27.389Z,0.93
2023-04-22T13:46:54.120Z,1.27
2023-04-22T13:49:21.088Z,4.10
2023-04-22T13:51:47.981Z,1.45
2023-04-22T13:54:23.852Z,5.00
2023-04-22T13:56:50.548Z,3.05
2023-04-22T13:59:17.320Z,1.35
2023-04-22T14:01:44.341Z,1.23
2023-04-22T14:04:13.714Z,1.63
2023-04-22T14:06:40.887Z,0.73
2023-04-22T14:09:07.854Z,3.25
2023-04-22T14:11:34.539Z,1.40
2023-04-22T14:14:01.389Z,0.90
2023-04-22T14:16:28.219Z,1.05
2023-04-22T14:18:55.786Z,1.40
2023-04-22T14:21:22.788Z,0.93
2023-04-22T14:23:50.100Z,0.82
2023-04-22T14:26:16.810Z,2.53
2023-04-22T14:28:43.662Z,1.58
2023-04-22T14:31:10.513Z,1.30
2023-04-22T14:33:37.390Z,1.15
2023-04-22T14:36:04.315Z,2.28
2023-04-22T14:38:31.111Z,1.33
2023-04-22T14:40:57.775Z,1.73
2023-04-22T14:43:24.473Z,1.10
2023-04-22T14:45:51.187Z,1.10
2023-04-22T14:48:17.944Z,1.38
2023-04-22T14:50:44.954Z,1.77
2023-04-22T14:53:11.593Z,1.25
2023-04-22T14:55:38.307Z,2.60
2023-04-22T14:58:05.355Z,1.85
2023-04-22T15:00:32.136Z,1.55
2023-04-22T15:02:58.874Z,1.13
2023-04-22T15:05:25.869Z,1.83
2023-04-22T15:07:52.827Z,1.00
2023-04-22T15:10:19.671Z,2.75
2023-04-22T15:12:46.329Z,2.67
2023-04-22T15:15:15.624Z,2.03
2023-04-22T15:17:45.531Z,3.03
2023-04-22T15:20:12.683Z,2.28
2023-04-22T15:22:42.903Z,1.80
2023-04-22T15:25:10.434Z,2.22
2023-04-22T15:27:38.002Z,1.80
2023-04-22T15:30:06.592Z,1.67
2023-04-22T15:32:33.358Z,2.15
2023-04-22T15:35:00.840Z,2.63
2023-04-22T15:37:27.558Z,3.55
2023-04-22T15:39:54.283Z,2.40
2023-04-22T15:42:21.045Z,2.47
2023-04-22T15:44:47.783Z,1.45
2023-04-22T15:47:15.744Z,2.42
2023-04-22T15:49:42.641Z,2.42
2023-04-22T15:52:09.533Z,1.83
2023-04-22T15:54:36.288Z,2.63
2023-04-22T15:57:03.091Z,1.98
2023-04-22T15:59:29.806Z,2.58
2023-04-22T16:01:56.626Z,4.00
2023-04-22T16:04:24.023Z,4.00
2023-04-22T16:06:51.644Z,3.00
2023-04-22T16:09:19.264Z,5.95
2023-04-22T16:11:45.950Z,7.43
2023-04-22T16:14:12.697Z,4.03
2023-04-22T16:16:40.170Z,2.38
2023-04-22T16:19:07.445Z,2.20
2023-04-22T16:21:34.294Z,3.35
2023-04-22T16:24:01.603Z,2.30
2023-04-22T16:26:28.334Z,3.38
2023-04-22T16:28:55.187Z,3.28
2023-04-22T16:31:23.183Z,1.55
2023-04-22T16:33:51.255Z,3.20
2023-04-22T16:36:17.941Z,1.92
2023-04-22T16:38:44.670Z,3.55
2023-04-22T16:41:11.745Z,3.10
2023-04-22T16:43:40.873Z,3.60
2023-04-22T16:46:07.919Z,3.40
2023-04-22T16:48:34.729Z,4.82
2023-04-22T16:51:01.396Z,3.90
2023-04-22T16:53:28.210Z,3.70
2023-04-22T16:55:54.865Z,5.05
2023-04-22T16:58:21.519Z,4.47
2023-04-22T17:00:51.444Z,2.40
2023-04-22T17:03:18.281Z,3.13
2023-04-22T17:05:45.017Z,3.70
2023-04-22T17:08:11.736Z,3.20
2023-04-22T17:10:41.454Z,2.63
2023-04-22T17:13:08.275Z,2.90
2023-04-22T17:15:34.967Z,3.42
2023-04-22T17:18:02.486Z,6.57
2023-04-22T17:20:29.316Z,6.18
2023-04-22T17:22:56.062Z,5.15
2023-04-22T17:25:22.691Z,4.82
2023-04-22T17:27:49.314Z,6.93
2023-04-22T17:30:16.098Z,5.53
2023-04-22T17:32:42.849Z,5.85
2023-04-22T17:35:09.948Z,9.45
2023-04-22T17:37:36.717Z,5.65
2023-04-22T17:40:04.797Z,5.47
2023-04-22T17:42:44.645Z,5.05
2023-04-22T17:45:12.423Z,6.50
2023-04-22T17:47:39.162Z,5.45
2023-04-22T17:50:06.678Z,6.47
2023-04-22T17:52:33.305Z,5.88
2023-04-22T17:55:00.145Z,4.90
2023-04-22T17:57:28.291Z,5.60
2023-04-22T17:59:55.070Z,4.30
2023-04-22T18:02:22.420Z,6.45
2023-04-22T18:04:49.224Z,4.82
2023-04-22T18:07:16.020Z,4.53
2023-04-22T18:09:43.175Z,4.22
2023-04-22T18:12:10.113Z,5.07
2023-04-22T18:14:36.839Z,7.95
2023-04-22T18:17:03.552Z,5.80
2023-04-22T18:19:30.325Z,5.57
2023-04-22T18:21:59.923Z,3.45
2023-04-22T18:24:27.719Z,3.10
2023-04-22T18:26:54.399Z,2.72
2023-04-22T18:29:21.099Z,3.08
2023-04-22T18:31:47.843Z,4.18
2023-04-22T18:34:15.810Z,4.78
2023-04-22T18:36:42.500Z,4.25
2023-04-22T18:39:10.056Z,7.47
2023-04-22T18:41:38.499Z,7.78
2023-04-22T18:44:05.232Z,4.78
2023-04-22T18:46:31.926Z,6.53
2023-04-22T18:48:58.883Z,5.80
2023-04-22T18:51:25.670Z,6.07
2023-04-22T18:53:55.795Z,3.95
2023-04-22T18:56:22.687Z,3.53
2023-04-22T18:58:50.103Z,3.67
2023-04-22T19:01:16.935Z,3.88
2023-04-22T19:03:43.962Z,4.75
2023-04-22T19:06:10.756Z,7.22
2023-04-22T19:08:37.601Z,8.60
2023-04-22T19:11:04.382Z,8.02
2023-04-22T19:13:31.369Z,10.40
2023-04-22T19:15:58.392Z,9.45
2023-04-22T19:18:25.222Z,6.97
2023-04-22T19:20:52.051Z,6.28
2023-04-22T19:23:18.790Z,6.60
2023-04-22T19:25:45.813Z,8.20
2023-04-22T19:28:13.037Z,8.55
2023-04-22T19:30:40.115Z,6.80
2023-04-22T19:33:07.001Z,5.82
2023-04-22T19:35:33.654Z,4.72
2023-04-22T19:38:01.352Z,12.52
2023-04-22T19:40:28.134Z,13.68
2023-04-22T19:42:54.968Z,9.30
2023-04-22T19:45:21.629Z,8.98
2023-04-22T19:47:48.570Z,8.23
2023-04-22T19:50:16.519Z,28.02
2023-04-22T19:52:43.182Z,8.68
2023-04-22T19:55:10.514Z,6.60
2023-04-22T19:57:37.620Z,8.73
2023-04-22T20:00:07.543Z,6.60
2023-04-22T20:02:35.764Z,6.88
2023-04-22T20:05:05.439Z,5.55
2023-04-22T20:07:33.461Z,4.65
2023-04-22T20:10:01.566Z,4.07
2023-04-22T20:12:29.351Z,3.80
2023-04-22T20:14:57.507Z,3.45
2023-04-22T20:17:24.974Z,4.85
2023-04-22T20:19:52.720Z,5.15
2023-04-22T20:22:19.601Z,3.17
2023-04-22T20:24:46.522Z,4.00
2023-04-22T20:27:13.143Z,3.65
2023-04-22T20:29:39.955Z,3.60
2023-04-22T20:32:07.229Z,3.05
2023-04-22T20:34:34.125Z,3.90
2023-04-22T20:37:02.539Z,2.35
2023-04-22T20:39:29.441Z,3.10
2023-04-22T20:41:56.595Z,3.35
2023-04-22T20:44:23.519Z,3.70
2023-04-22T20:46:50.156Z,3.58
2023-04-22T20:49:17.230Z,2.42
2023-04-22T20:51:43.865Z,2.97
2023-04-22T20:54:21.626Z,3.38
2023-04-22T20:56:55.452Z,7.38
2023-04-22T20:59:22.107Z,6.30
2023-04-22T21:01:48.858Z,3.95
2023-04-22T21:04:15.958Z,5.38
2023-04-22T21:06:43.748Z,2.65
2023-04-22T21:09:10.541Z,3.53
2023-04-22T21:11:37.730Z,3.35
2023-04-22T21:14:04.772Z,3.33
2023-04-22T21:16:31.518Z,2.90
2023-04-22T21:19:00.357Z,10.05
2023-04-22T21:21:33.616Z,5.63
2023-04-22T21:24:01.716Z,4.28
2023-04-22T21:26:29.638Z,3.70
2023-04-22T21:28:56.979Z,3.72
2023-04-22T21:31:23.857Z,4.13
2023-04-22T21:33:50.838Z,4.07
2023-04-22T21:36:18.037Z,2.97
2023-04-22T21:38:44.943Z,3.63
2023-04-22T21:41:11.792Z,2.72
2023-04-22T21:43:38.555Z,3.47
2023-04-22T21:46:05.854Z,3.33
2023-04-22T21:48:32.660Z,3.17
2023-04-22T21:50:59.429Z,4.22
2023-04-22T21:53:26.013Z,3.70
2023-04-22T21:55:52.753Z,4.38
2023-04-22T21:58:19.464Z,3.35
2023-04-22T22:00:46.147Z,5.82
2023-04-22T22:03:13.111Z,3.40
2023-04-22T22:05:39.887Z,2.97
2023-04-22T22:08:07.011Z,4.65
2023-04-22T22:10:33.857Z,3.75
2023-04-22T22:13:00.676Z,3.75
2023-04-22T22:15:27.456Z,3.58
2023-04-22T22:17:54.268Z,3.13
2023-04-22T22:20:20.979Z,4.38
2023-04-22T22:22:47.774Z,3.72
2023-04-22T22:25:15.644Z,3.83
2023-04-22T22:27:46.824Z,3.95
2023-04-22T22:30:13.765Z,2.83
2023-04-22T22:32:40.640Z,2.65
2023-04-22T22:35:07.986Z,3.33
2023-04-22T22:37:34.948Z,3.25
2023-04-22T22:40:01.763Z,3.03
2023-04-22T22:42:28.379Z,3.13
2023-04-22T22:44:55.712Z,3.35
2023-04-22T22:47:22.396Z,3.53
2023-04-22T22:49:49.261Z,3.60
2023-04-22T22:52:15.882Z,3.40
2023-04-22T22:54:42.845Z,3.17
2023-04-22T22:57:10.058Z,3.40
2023-04-22T22:59:37.346Z,4.05
2023-04-22T23:02:04.137Z,4.75
2023-04-22T23:04:31.131Z,3.53
2023-04-22T23:06:57.934Z,3.47
2023-04-22T23:09:24.546Z,3.40
2023-04-22T23:11:52.019Z,4.75
2023-04-22T23:14:20.038Z,3.38
2023-04-22T23:16:46.988Z,3.15
2023-04-22T23:19:14.393Z,3.13
2023-04-22T23:21:42.298Z,3.17
2023-04-22T23:24:09.587Z,4.00
2023-04-22T23:26:36.964Z,3.50
2023-04-22T23:29:04.602Z,3.88
2023-04-22T23:31:32.741Z,3.60
2023-04-22T23:34:02.631Z,3.50
2023-04-22T23:36:32.350Z,2.90
2023-04-22T23:38:59.676Z,4.50
2023-04-22T23:41:26.579Z,3.03
2023-04-22T23:43:53.262Z,7.07
2023-04-22T23:46:19.953Z,3.55
2023-04-22T23:48:46.844Z,2.72
2023-04-22T23:51:16.244Z,2.88
2023-04-22T23:53:43.503Z,2.70
2023-04-22T23:56:11.040Z,2.88
2023-04-22T23:58:37.917Z,3.70
